Time;durP1;ratioP1;P1;durP2;ratioP2;P2;SDS_P1;SDS_P2;PMS_P1;PMS_P2;Temp;Humidity;BMP_temperature;BMP_pressure;BME280_temperature;BME280_humidity;BME280_pressure;Samples;Min_cycle;Max_cycle;Signal;HPM_P1;HPM_P2
2022/04/13 00:01:57;;;;;;;13.70;8.57;;;;;;;5.57;nan;-23972.34;4961122;28;20197;-72
2022/04/13 00:04:22;;;;;;;15.20;8.87;;;;;;;5.68;nan;-23975.47;4953431;28;20189;-72
2022/04/13 00:06:48;;;;;;;11.80;8.73;;;;;;;5.73;nan;-23976.88;4953410;29;20187;-73
2022/04/13 00:09:13;;;;;;;13.57;8.87;;;;;;;5.86;nan;-23980.28;4953342;28;20193;-73
2022/04/13 00:11:39;;;;;;;18.47;9.00;;;;;;;5.09;nan;-23958.69;4953154;28;20178;-73
2022/04/13 00:14:04;;;;;;;11.43;8.43;;;;;;;5.52;nan;-23970.78;4952495;29;20190;-73
2022/04/13 00:16:30;;;;;;;15.77;8.90;;;;;;;5.24;nan;-23963.09;4951679;29;20205;-71
2022/04/13 00:18:55;;;;;;;14.20;9.10;;;;;;;5.41;nan;-23967.66;4953349;29;20194;-72
2022/04/13 00:21:21;;;;;;;9.93;8.30;;;;;;;5.56;nan;-23971.91;4953104;28;20189;-70
2022/04/13 00:23:46;;;;;;;13.70;9.30;;;;;;;5.60;nan;-23973.03;4953369;29;20170;-71
2022/04/13 00:26:12;;;;;;;13.43;8.77;;;;;;;5.36;nan;-23966.22;4953001;28;20210;-71
2022/04/13 00:28:38;;;;;;;14.07;9.13;;;;;;;5.76;nan;-23977.59;4952937;28;20557;-73
2022/04/13 00:31:03;;;;;;;16.53;9.30;;;;;;;5.63;nan;-23973.91;4952823;28;20170;-73
2022/04/13 00:33:29;;;;;;;13.77;9.27;;;;;;;5.61;nan;-23973.47;4953042;29;20209;-73
2022/04/13 00:35:54;;;;;;;16.17;9.57;;;;;;;5.74;nan;-23977.03;4952975;29;20205;-72
2022/04/13 00:38:22;;;;;;;11.70;8.97;;;;;;;5.41;nan;-23967.66;4952186;28;20186;-73
2022/04/13 00:40:48;;;;;;;11.57;8.63;;;;;;;5.29;nan;-23964.50;4955459;29;20182;-71
2022/04/13 00:43:13;;;;;;;13.60;8.57;;;;;;;5.51;nan;-23970.63;4955794;29;20553;-73
2022/04/13 00:45:39;;;;;;;9.67;8.10;;;;;;;5.42;nan;-23968.06;4956213;29;20182;-71
2022/04/13 00:48:06;;;;;;;11.23;8.03;;;;;;;5.90;nan;-23981.44;4934353;29;20191;-69
2022/04/13 00:50:33;;;;;;;11.57;8.33;;;;;;;5.57;nan;-23972.34;4953579;29;20268;-73
2022/04/13 00:52:59;;;;;;;10.20;8.20;;;;;;;5.56;nan;-23972.06;4962113;28;20222;-74
2022/04/13 00:55:26;;;;;;;12.43;8.70;;;;;;;5.91;nan;-23981.88;4958942;28;20216;-70
2022/04/13 00:57:55;;;;;;;10.73;8.67;;;;;;;5.73;nan;-23976.88;4961231;28;20205;-74
2022/04/13 01:00:21;;;;;;;14.40;9.03;;;;;;;5.80;nan;-23978.72;4979566;28;20363;-71
2022/04/13 01:02:46;;;;;;;12.07;9.33;;;;;;;5.68;nan;-23975.47;4981601;28;20194;-70
2022/04/13 01:05:12;;;;;;;10.90;9.20;;;;;;;5.67;nan;-23975.19;4953720;29;20188;-72
2022/04/13 01:07:39;;;;;;;17.27;9.53;;;;;;;5.26;nan;-23963.66;4956320;28;20212;-73
2022/04/13 01:10:06;;;;;;;12.07;9.60;;;;;;;5.44;nan;-23968.63;4956322;29;20186;-74
2022/04/13 01:12:35;;;;;;;11.60;9.03;;;;;;;5.29;nan;-23964.38;4955968;29;20194;-71
2022/04/13 01:15:01;;;;;;;15.00;9.43;;;;;;;5.26;nan;-23963.66;4956267;28;20206;-72
2022/04/13 01:17:27;;;;;;;15.43;10.00;;;;;;;5.25;nan;-23963.38;4961629;28;20183;-73
2022/04/13 01:19:54;;;;;;;16.37;11.40;;;;;;;4.77;nan;-23949.72;4939277;29;20178;-70
2022/04/13 01:22:23;;;;;;;16.03;10.67;;;;;;;4.99;nan;-23956.00;4956261;28;20181;-70
2022/04/13 01:24:49;;;;;;;18.50;11.10;;;;;;;5.27;nan;-23963.94;4960613;28;20237;-73
2022/04/13 01:27:16;;;;;;;18.40;11.07;;;;;;;4.84;nan;-23951.84;4957408;28;20181;-73
2022/04/13 01:29:45;;;;;;;14.20;11.00;;;;;;;5.21;nan;-23962.09;4955604;28;20186;-71
2022/04/13 01:32:11;;;;;;;15.43;11.00;;;;;;;5.06;nan;-23957.97;4955863;29;20182;-71
2022/04/13 01:34:37;;;;;;;16.63;11.13;;;;;;;5.04;nan;-23957.41;4955601;29;20186;-71
2022/04/13 01:37:04;;;;;;;16.73;10.73;;;;;;;5.14;nan;-23960.09;4955542;28;20185;-73
2022/04/13 01:39:29;;;;;;;17.00;11.37;;;;;;;5.08;nan;-23958.41;4955556;28;20181;-73
2022/04/13 01:41:55;;;;;;;17.93;11.57;;;;;;;4.96;nan;-23955.13;4955499;28;20249;-74
2022/04/13 01:44:20;;;;;;;18.23;11.30;;;;;;;5.00;nan;-23956.13;4955274;29;20182;-72
2022/04/13 01:46:46;;;;;;;16.17;10.50;;;;;;;4.55;nan;-23943.59;4955623;29;20532;-71
2022/04/13 01:49:11;;;;;;;14.27;10.20;;;;;;;4.44;nan;-23940.63;4955174;28;20221;-71
2022/04/13 01:51:36;;;;;;;16.63;11.20;;;;;;;4.83;nan;-23951.56;4955425;28;20728;-71
2022/04/13 01:54:02;;;;;;;16.70;11.13;;;;;;;4.45;nan;-23940.91;4963580;28;20217;-73
2022/04/13 01:56:27;;;;;;;22.30;11.83;;;;;;;4.72;nan;-23948.44;4963323;28;20607;-71
2022/04/13 01:58:53;;;;;;;16.80;11.63;;;;;;;4.64;nan;-23946.03;4952912;28;20237;-71
2022/04/13 02:01:19;;;;;;;17.50;12.20;;;;;;;4.56;nan;-23943.88;4957197;28;20182;-72
2022/04/13 02:03:45;;;;;;;18.57;11.93;;;;;;;4.42;nan;-23939.91;4959260;28;20178;-73
2022/04/13 02:06:10;;;;;;;18.10;11.87;;;;;;;4.06;nan;-23929.78;4956986;28;20646;-70
2022/04/13 02:08:36;;;;;;;17.90;12.73;;;;;;;4.39;nan;-23939.06;4952859;28;20273;-74
2022/04/13 02:11:02;;;;;;;17.73;12.10;;;;;;;4.20;nan;-23933.63;4952720;28;20186;-71
2022/04/13 02:13:27;;;;;;;18.00;12.97;;;;;;;4.18;nan;-23933.06;4951779;28;20202;-73
2022/04/13 02:15:53;;;;;;;16.10;12.13;;;;;;;3.83;nan;-23923.25;4952724;28;20209;-73
2022/04/13 02:18:18;;;;;;;20.13;12.60;;;;;;;4.18;nan;-23933.06;4968198;28;20719;-70
2022/04/13 02:20:44;;;;;;;16.17;11.43;;;;;;;3.97;nan;-23927.22;4957472;28;20174;-73
2022/04/13 02:23:10;;;;;;;17.03;11.60;;;;;;;4.24;nan;-23934.78;4953548;28;20190;-71
2022/04/13 02:25:35;;;;;;;17.47;12.03;;;;;;;4.43;nan;-23940.19;4971442;28;20213;-71
2022/04/13 02:28:05;;;;;;;20.27;11.97;;;;;;;3.81;nan;-23922.66;4947624;28;20193;-74
2022/04/13 02:30:31;;;;;;;18.50;12.33;;;;;;;4.11;nan;-23931.06;4969445;28;20193;-73
2022/04/13 02:32:56;;;;;;;15.77;12.30;;;;;;;4.25;nan;-23935.06;4956011;28;20186;-72
2022/04/13 02:35:22;;;;;;;18.50;13.10;;;;;;;4.21;nan;-23933.94;4954159;28;20275;-73
2022/04/13 02:37:47;;;;;;;22.80;12.80;;;;;;;3.89;nan;-23924.94;4960344;28;20189;-74
2022/04/13 02:40:13;;;;;;;19.90;12.07;;;;;;;4.20;nan;-23933.78;4958078;28;20640;-74
2022/04/13 02:42:39;;;;;;;20.80;12.57;;;;;;;3.91;nan;-23925.53;4967400;28;20222;-71
2022/04/13 02:45:05;;;;;;;19.47;12.57;;;;;;;3.69;nan;-23919.25;4954640;29;20259;-71
2022/04/13 02:47:35;;;;;;;18.20;12.97;;;;;;;3.86;nan;-23924.09;4957706;28;20186;-71
2022/04/13 02:50:01;;;;;;;21.90;13.33;;;;;;;3.42;nan;-23911.69;4954865;28;20203;-74
2022/04/13 02:52:30;;;;;;;19.43;12.63;;;;;;;3.66;nan;-23918.41;4952486;28;20232;-74
2022/04/13 02:54:56;;;;;;;18.80;12.90;;;;;;;4.02;nan;-23928.66;4953224;29;20224;-72
2022/04/13 02:57:22;;;;;;;18.13;13.00;;;;;;;3.77;nan;-23921.69;4952295;29;20287;-71
2022/04/13 02:59:48;;;;;;;19.10;13.13;;;;;;;3.91;nan;-23925.66;4950341;29;20327;-72
2022/04/13 03:02:18;;;;;;;20.03;13.23;;;;;;;3.46;nan;-23912.97;4952775;28;20185;-72
2022/04/13 03:04:46;;;;;;;17.60;12.83;;;;;;;3.87;nan;-23924.53;4937335;29;20189;-73
2022/04/13 03:07:13;;;;;;;25.30;13.30;;;;;;;3.27;nan;-23907.41;4953859;28;20178;-71
2022/04/13 03:09:39;;;;;;;22.07;14.03;;;;;;;3.69;nan;-23919.25;4950787;28;20189;-72
2022/04/13 03:12:06;;;;;;;21.03;13.73;;;;;;;3.76;nan;-23921.25;4938672;29;20192;-71
2022/04/13 03:14:32;;;;;;;20.53;13.93;;;;;;;3.88;nan;-23924.81;4953022;29;20264;-73
2022/04/13 03:16:57;;;;;;;18.33;13.10;;;;;;;3.96;nan;-23927.09;4950678;28;20622;-73
2022/04/13 03:19:22;;;;;;;19.90;13.20;;;;;;;3.59;nan;-23916.53;4949219;29;20178;-71
2022/04/13 03:21:51;;;;;;;16.93;12.60;;;;;;;3.95;nan;-23926.66;4946593;29;20193;-72
2022/04/13 03:24:23;;;;;;;20.93;12.83;;;;;;;3.42;nan;-23911.84;4945771;28;20273;-70
2022/04/13 03:26:49;;;;;;;19.37;13.07;;;;;;;3.58;nan;-23916.13;4946256;29;20252;-70
2022/04/13 03:29:15;;;;;;;17.70;12.53;;;;;;;3.75;nan;-23920.97;4946133;29;20181;-70
2022/04/13 03:31:40;;;;;;;18.70;12.60;;;;;;;3.57;nan;-23915.97;4944252;29;20654;-71
2022/04/13 03:34:06;;;;;;;22.20;12.57;;;;;;;3.76;nan;-23921.38;4945272;29;20185;-73
2022/04/13 03:36:32;;;;;;;21.40;12.33;;;;;;;3.66;nan;-23918.41;4946647;29;20243;-71
2022/04/13 03:38:57;;;;;;;18.77;12.03;;;;;;;3.61;nan;-23916.97;4945934;29;20212;-72
2022/04/13 03:41:23;;;;;;;19.07;13.03;;;;;;;3.44;nan;-23912.25;4946063;29;20633;-72
2022/04/13 03:43:48;;;;;;;21.93;13.57;;;;;;;3.49;nan;-23913.84;4947713;29;20211;-70
2022/04/13 03:46:14;;;;;;;21.70;13.43;;;;;;;3.38;nan;-23910.56;4947725;28;20181;-73
2022/04/13 03:48:39;;;;;;;20.97;13.40;;;;;;;3.38;nan;-23910.56;4968858;28;20189;-71
2022/04/13 03:51:04;;;;;;;20.00;13.47;;;;;;;3.79;nan;-23922.09;4946806;29;20243;-72
2022/04/13 03:53:30;;;;;;;24.57;13.57;;;;;;;3.44;nan;-23912.41;4947703;29;20193;-71
2022/04/13 03:55:55;;;;;;;23.67;13.80;;;;;;;3.62;nan;-23917.41;4945848;28;20332;-71
2022/04/13 03:58:21;;;;;;;25.27;15.17;;;;;;;3.82;nan;-23923.09;4947563;29;20629;-71
2022/04/13 04:00:48;;;;;;;30.20;13.87;;;;;;;3.76;nan;-23921.25;4946391;29;20213;-71
2022/04/13 04:03:13;;;;;;;20.07;13.10;;;;;;;3.99;nan;-23927.94;4946379;28;20180;-71
2022/04/13 04:05:39;;;;;;;20.47;14.20;;;;;;;3.66;nan;-23918.53;4946145;29;21100;-74
2022/04/13 04:08:05;;;;;;;27.07;13.87;;;;;;;3.90;nan;-23925.22;4946120;29;20225;-74
2022/04/13 04:10:30;;;;;;;27.23;13.97;;;;;;;4.68;nan;-23947.31;4946713;29;20321;-73
2022/04/13 04:12:56;;;;;;;21.80;13.77;;;;;;;6.01;nan;-23984.56;4945710;28;20212;-73
2022/04/13 04:15:21;;;;;;;24.27;13.63;;;;;;;6.76;nan;-24005.56;4950163;28;20213;-72
2022/04/13 04:17:47;;;;;;;21.97;12.80;;;;;;;7.92;nan;-24038.31;4950583;29;21208;-73
2022/04/13 04:20:13;;;;;;;20.60;12.53;;;;;;;7.97;nan;-24039.72;4949523;29;20178;-71
2022/04/13 04:22:39;;;;;;;21.47;13.27;;;;;;;8.12;nan;-24043.84;4950612;29;20182;-72
2022/04/13 04:25:07;;;;;;;30.77;14.33;;;;;;;8.18;nan;-24045.41;4949510;29;20190;-75
2022/04/13 04:27:32;;;;;;;21.93;13.57;;;;;;;8.44;nan;-24052.78;4949826;28;20634;-73
2022/04/13 04:29:58;;;;;;;20.37;12.83;;;;;;;8.90;nan;-24065.50;4948502;29;20328;-70
2022/04/13 04:32:24;;;;;;;20.80;13.00;;;;;;;8.88;nan;-24065.06;4949707;29;20308;-72
2022/04/13 04:34:49;;;;;;;21.50;13.83;;;;;;;9.08;nan;-24070.72;4949272;28;20677;-71
2022/04/13 04:37:15;;;;;;;22.87;14.00;;;;;;;8.12;nan;-24043.69;4949333;29;20265;-75
2022/04/13 04:39:40;;;;;;;21.93;13.70;;;;;;;8.40;nan;-24051.63;4952490;28;20219;-71
2022/04/13 04:42:06;;;;;;;21.50;14.00;;;;;;;7.70;nan;-24032.09;4955814;29;20265;-70
2022/04/13 04:44:32;;;;;;;23.60;14.47;;;;;;;7.72;nan;-24032.50;4955578;29;20661;-74
2022/04/13 04:46:57;;;;;;;19.87;13.03;;;;;;;7.27;nan;-24020.03;4953403;29;20232;-73
2022/04/13 04:49:23;;;;;;;18.70;12.80;;;;;;;7.17;nan;-24017.06;4955693;29;20190;-74
2022/04/13 04:51:49;;;;;;;19.77;12.77;;;;;;;7.02;nan;-24013.09;4956334;28;20237;-73
2022/04/13 04:54:15;;;;;;;20.70;12.50;;;;;;;6.17;nan;-23989.09;4954961;29;20194;-75
2022/04/13 04:56:41;;;;;;;20.90;13.27;;;;;;;6.80;nan;-24006.84;4943470;29;20693;-74
2022/04/13 04:59:06;;;;;;;19.97;13.23;;;;;;;6.79;nan;-24006.44;4954855;28;20282;-71
2022/04/13 05:01:32;;;;;;;24.13;13.13;;;;;;;6.83;nan;-24007.56;4954933;29;20201;-73
2022/04/13 05:03:57;;;;;;;18.97;12.10;;;;;;;6.26;nan;-23991.53;4955482;29;20268;-72
2022/04/13 05:06:28;;;;;;;19.47;11.67;;;;;;;6.43;nan;-23996.34;4955434;29;20219;-71
2022/04/13 05:08:55;;;;;;;19.57;12.67;;;;;;;6.33;nan;-23993.50;4955691;29;20178;-73
2022/04/13 05:11:21;;;;;;;22.60;12.13;;;;;;;6.80;nan;-24006.84;4953703;28;20174;-74
2022/04/13 05:13:47;;;;;;;22.93;13.03;;;;;;;6.94;nan;-24010.69;4955049;29;20190;-71
2022/04/13 05:16:13;;;;;;;19.60;12.67;;;;;;;6.84;nan;-24007.84;4954863;28;21169;-74
2022/04/13 05:18:40;;;;;;;20.33;11.97;;;;;;;7.35;nan;-24022.16;4954962;29;20224;-73
2022/04/13 05:21:05;;;;;;;21.53;12.70;;;;;;;6.38;nan;-23994.94;4955102;29;20611;-72
2022/04/13 05:23:30;;;;;;;22.53;12.43;;;;;;;7.15;nan;-24016.63;4955788;28;20170;-72
2022/04/13 05:25:56;;;;;;;20.73;11.80;;;;;;;7.39;nan;-24023.31;4954609;28;20178;-71
2022/04/13 05:28:21;;;;;;;21.30;12.00;;;;;;;7.49;nan;-24026.13;4955251;29;20178;-70
2022/04/13 05:30:47;;;;;;;23.17;12.23;;;;;;;7.37;nan;-24022.88;4953671;28;20169;-67
2022/04/13 05:33:13;;;;;;;29.20;12.77;;;;;;;8.06;nan;-24042.00;4954878;28;20622;-67
2022/04/13 05:35:38;;;;;;;28.60;11.87;;;;;;;7.97;nan;-24039.72;4955557;28;20213;-67
2022/04/13 05:38:05;;;;;;;20.50;11.10;;;;;;;8.23;nan;-24046.81;4954738;28;20228;-67
2022/04/13 05:40:31;;;;;;;18.17;10.30;;;;;;;8.10;nan;-24043.13;4955392;29;20178;-65
2022/04/13 05:42:56;;;;;;;14.17;8.93;;;;;;;8.65;nan;-24058.56;4938135;29;20275;-68
2022/04/13 05:45:22;;;;;;;12.43;8.60;;;;;;;9.00;nan;-24068.47;4954810;29;20222;-67
2022/04/13 05:47:47;;;;;;;13.90;8.00;;;;;;;9.06;nan;-24070.16;4954434;29;20181;-67
2022/04/13 05:50:13;;;;;;;17.23;6.90;;;;;;;9.21;nan;-24074.41;4955088;29;20531;-65
2022/04/13 05:52:40;;;;;;;8.77;6.77;;;;;;;9.18;nan;-24073.56;4954802;29;20222;-66
2022/04/13 05:55:07;;;;;;;16.30;7.40;;;;;;;9.35;nan;-24078.22;4954573;29;20213;-68
2022/04/13 05:57:32;;;;;;;15.03;6.83;;;;;;;9.26;nan;-24075.69;4953584;29;20178;-66
2022/04/13 05:59:58;;;;;;;10.13;6.00;;;;;;;9.64;nan;-24086.28;4954332;29;20583;-66
2022/04/13 06:02:23;;;;;;;15.97;5.60;;;;;;;9.80;nan;-24090.81;4952206;28;20182;-68
2022/04/13 06:04:49;;;;;;;9.97;5.77;;;;;;;9.83;nan;-24091.50;4955880;29;20182;-68
2022/04/13 06:07:14;;;;;;;9.60;6.40;;;;;;;9.43;nan;-24080.34;4955480;28;20754;-65
2022/04/13 06:09:40;;;;;;;6.30;5.23;;;;;;;9.60;nan;-24085.28;4956617;29;20182;-67
2022/04/13 06:12:06;;;;;;;8.43;5.97;;;;;;;9.77;nan;-24089.94;4971461;29;20205;-64
2022/04/13 06:14:32;;;;;;;7.00;5.80;;;;;;;10.19;nan;-24101.81;4969275;28;20274;-64
2022/04/13 06:16:57;;;;;;;9.30;5.83;;;;;;;9.94;nan;-24094.63;4956208;29;20206;-67
2022/04/13 06:19:22;;;;;;;8.33;5.80;;;;;;;10.26;nan;-24103.53;4953496;28;20548;-66
2022/04/13 06:21:48;;;;;;;8.47;5.57;;;;;;;10.15;nan;-24100.53;4951298;29;20673;-67
2022/04/13 06:24:13;;;;;;;7.50;5.20;;;;;;;10.68;nan;-24115.38;4954874;29;20246;-68
2022/04/13 06:26:38;;;;;;;10.40;5.83;;;;;;;10.90;nan;-24121.56;4954658;29;20189;-68
2022/04/13 06:29:04;;;;;;;9.00;5.20;;;;;;;10.91;nan;-24121.84;4954698;29;20634;-68
2022/04/13 06:31:30;;;;;;;13.13;5.60;;;;;;;10.92;nan;-24122.13;4954345;29;20186;-69
2022/04/13 06:33:56;;;;;;;11.33;5.63;;;;;;;10.64;nan;-24114.25;4955145;29;20178;-67
2022/04/13 06:36:21;;;;;;;7.87;5.43;;;;;;;11.33;nan;-24133.41;4954206;28;20209;-65
2022/04/13 06:38:47;;;;;;;9.40;5.30;;;;;;;10.88;nan;-24120.88;4954744;29;20182;-68
2022/04/13 06:41:13;;;;;;;11.87;6.00;;;;;;;11.24;nan;-24131.03;4955120;29;20175;-65
2022/04/13 06:43:39;;;;;;;8.93;5.78;;;;;;;11.16;nan;-24128.75;4954372;28;20170;-67
2022/04/13 06:46:05;;;;;;;9.18;5.80;;;;;;;11.37;nan;-24134.69;4954591;28;20182;-65
2022/04/13 06:48:31;;;;;;;9.73;5.63;;;;;;;11.49;nan;-24137.94;4954764;28;20260;-68
2022/04/13 06:50:57;;;;;;;10.40;5.95;;;;;;;11.62;nan;-24141.59;4956775;28;20264;-65
2022/04/13 06:53:23;;;;;;;9.02;5.30;;;;;;;11.36;nan;-24134.41;4973420;28;20169;-66
2022/04/13 06:55:48;;;;;;;11.73;5.97;;;;;;;11.59;nan;-24140.59;4973056;28;20263;-67
2022/04/13 06:58:18;;;;;;;8.35;5.95;;;;;;;11.56;nan;-24139.75;4973256;28;20184;-65
2022/04/13 07:00:44;;;;;;;7.57;5.25;;;;;;;11.91;nan;-24149.75;4973166;28;20173;-68
2022/04/13 07:03:09;;;;;;;10.15;6.22;;;;;;;12.00;nan;-24152.00;4955445;28;20273;-69
2022/04/13 07:05:35;;;;;;;9.70;5.40;;;;;;;12.38;nan;-24162.72;4970084;28;20598;-67
2022/04/13 07:08:02;;;;;;;10.77;5.40;;;;;;;12.27;nan;-24159.63;4954090;29;20186;-67
2022/04/13 07:10:29;;;;;;;9.00;5.13;;;;;;;11.86;nan;-24148.34;4952052;28;20553;-68
2022/04/13 07:12:55;;;;;;;8.95;4.80;;;;;;;12.43;nan;-24163.97;4951453;28;20186;-68
2022/04/13 07:15:20;;;;;;;8.88;5.50;;;;;;;12.13;nan;-24155.66;4952543;28;20210;-68
2022/04/13 07:17:46;;;;;;;7.78;5.50;;;;;;;12.43;nan;-24163.97;4950877;28;20185;-65
2022/04/13 07:20:13;;;;;;;7.20;4.90;;;;;;;12.39;nan;-24163.00;4953422;28;20697;-69
2022/04/13 07:22:52;;;;;;;7.05;4.80;;;;;;;12.32;nan;-24161.16;4955141;28;20237;-68
2022/04/13 07:25:18;;;;;;;9.90;5.32;;;;;;;12.01;nan;-24152.44;4964679;28;20211;-66
2022/04/13 07:27:45;;;;;;;8.30;5.45;;;;;;;12.57;nan;-24168.06;4960391;28;20631;-68
2022/04/13 07:30:11;;;;;;;9.70;5.43;;;;;;;12.24;nan;-24158.91;4952841;28;20210;-68
2022/04/13 07:32:37;;;;;;;12.85;5.43;;;;;;;12.36;nan;-24162.28;4956192;28;20188;-66
2022/04/13 07:35:03;;;;;;;7.38;5.18;;;;;;;12.81;nan;-24174.66;4958927;28;20209;-65
2022/04/13 07:37:29;;;;;;;5.85;4.68;;;;;;;12.67;nan;-24170.72;4953163;28;20254;-66
2022/04/13 07:39:55;;;;;;;7.10;4.35;;;;;;;12.75;nan;-24173.13;4966372;28;20188;-67
2022/04/13 07:42:24;;;;;;;6.07;4.50;;;;;;;12.86;nan;-24176.06;4956961;28;20186;-68
2022/04/13 07:44:50;;;;;;;7.90;4.25;;;;;;;13.14;nan;-24183.94;4955234;28;20313;-68
2022/04/13 07:47:17;;;;;;;8.77;5.15;;;;;;;13.12;nan;-24183.38;4972989;28;20257;-67
2022/04/13 07:49:43;;;;;;;8.20;4.90;;;;;;;13.55;nan;-24195.19;4975262;28;20177;-66
2022/04/13 07:52:09;;;;;;;7.75;4.63;;;;;;;13.33;nan;-24189.00;4976451;28;20577;-64
2022/04/13 07:54:34;;;;;;;10.00;4.95;;;;;;;13.24;nan;-24186.63;4976398;28;20634;-64
2022/04/13 07:57:00;;;;;;;10.98;4.90;;;;;;;13.82;nan;-24202.78;4976424;28;20247;-64
2022/04/13 07:59:27;;;;;;;7.55;4.32;;;;;;;13.71;nan;-24199.69;4976446;28;20173;-67
2022/04/13 08:01:53;;;;;;;7.72;4.72;;;;;;;13.98;nan;-24207.13;4976664;28;20170;-65
2022/04/13 08:04:18;;;;;;;6.72;4.55;;;;;;;14.54;nan;-24222.69;4976234;28;20240;-67
2022/04/13 08:06:43;;;;;;;7.70;4.35;;;;;;;14.13;nan;-24211.47;4976689;28;20562;-68
2022/04/13 08:09:09;;;;;;;8.10;4.55;;;;;;;13.32;nan;-24188.88;4976604;28;20207;-65
2022/04/13 08:11:34;;;;;;;8.40;4.47;;;;;;;13.50;nan;-24193.78;4975978;28;20645;-66
2022/04/13 08:13:59;;;;;;;6.75;4.50;;;;;;;13.57;nan;-24195.75;4976688;28;20201;-68
2022/04/13 08:16:25;;;;;;;6.32;4.25;;;;;;;13.71;nan;-24199.81;4976418;28;20197;-65
2022/04/13 08:18:50;;;;;;;5.63;4.20;;;;;;;14.28;nan;-24215.41;4958802;28;20761;-67
2022/04/13 08:21:16;;;;;;;7.88;4.30;;;;;;;14.61;nan;-24224.50;4972966;28;20174;-68
2022/04/13 08:23:41;;;;;;;7.20;4.30;;;;;;;14.32;nan;-24216.50;4957120;29;20189;-65
2022/04/13 08:26:07;;;;;;;4.90;3.97;;;;;;;14.76;nan;-24228.72;4964884;28;20209;-67
2022/04/13 08:28:32;;;;;;;6.50;4.10;;;;;;;14.31;nan;-24216.38;4976571;28;20277;-66
2022/04/13 08:30:57;;;;;;;6.93;4.57;;;;;;;14.72;nan;-24227.59;4976359;28;20243;-68
2022/04/13 08:33:24;;;;;;;5.22;4.03;;;;;;;14.29;nan;-24215.81;4976098;28;20197;-67
2022/04/13 08:35:49;;;;;;;6.88;4.38;;;;;;;14.35;nan;-24217.50;4976131;28;20197;-68
2022/04/13 08:38:15;;;;;;;5.85;4.30;;;;;;;14.54;nan;-24222.69;4976236;28;20177;-66
2022/04/13 08:40:56;;;;;;;7.65;4.60;;;;;;;14.38;nan;-24218.22;4975659;28;20173;-67
2022/04/13 08:43:29;;;;;;;7.68;4.40;;;;;;;14.23;nan;-24214.00;4975825;28;20193;-65
2022/04/13 08:45:57;;;;;;;7.70;4.03;;;;;;;14.87;nan;-24231.94;4975773;28;20177;-67
2022/04/13 08:48:25;;;;;;;8.52;4.45;;;;;;;14.87;nan;-24231.94;4975758;28;20174;-66
2022/04/13 08:51:02;;;;;;;7.38;4.28;;;;;;;14.78;nan;-24229.28;4975553;28;20557;-69
2022/04/13 08:53:31;;;;;;;5.82;4.10;;;;;;;14.55;nan;-24222.97;4967929;28;20665;-69
2022/04/13 08:55:59;;;;;;;6.18;4.03;;;;;;;14.68;nan;-24226.47;4964533;28;20586;-65
2022/04/13 08:58:27;;;;;;;8.43;4.38;;;;;;;14.97;nan;-24234.75;4955944;28;20174;-68
2022/04/13 09:00:57;;;;;;;6.03;4.45;;;;;;;15.00;nan;-24235.44;4954791;28;20194;-67
2022/04/13 09:03:46;;;;;;;7.95;4.30;;;;;;;15.38;nan;-24245.94;4960663;28;20178;-65
2022/04/13 09:06:13;;;;;;;5.85;4.40;;;;;;;15.49;nan;-24249.16;4964705;28;20598;-67
2022/04/13 09:08:56;;;;;;;6.38;4.10;;;;;;;15.95;nan;-24261.78;4955955;29;20188;-67
2022/04/13 09:11:24;;;;;;;5.18;4.03;;;;;;;16.24;nan;-24269.75;4956950;28;20198;-66
2022/04/13 09:13:51;;;;;;;8.05;4.10;;;;;;;16.08;nan;-24265.41;4972365;28;20238;-66
2022/04/13 09:16:17;;;;;;;6.28;4.13;;;;;;;15.55;nan;-24250.72;4955382;29;20729;-68
2022/04/13 09:18:43;;;;;;;6.95;4.00;;;;;;;15.25;nan;-24242.31;4962025;28;20642;-66
2022/04/13 09:21:17;;;;;;;6.95;3.95;;;;;;;15.83;nan;-24258.56;4958004;28;20201;-68
2022/04/13 09:23:42;;;;;;;6.78;4.20;;;;;;;15.69;nan;-24254.50;4975116;28;20169;-68
2022/04/13 09:26:08;;;;;;;7.75;3.80;;;;;;;15.99;nan;-24262.75;4974889;28;20177;-65
2022/04/13 09:28:34;;;;;;;5.57;3.88;;;;;;;16.33;nan;-24272.25;4973315;28;20170;-68
2022/04/13 09:31:00;;;;;;;6.70;4.15;;;;;;;16.35;nan;-24272.97;4975026;28;20170;-69
2022/04/13 09:33:26;;;;;;;11.18;4.35;;;;;;;16.68;nan;-24282.03;4974918;28;20177;-67
2022/04/13 09:35:53;;;;;;;7.70;4.25;;;;;;;16.81;nan;-24285.53;4974923;28;20708;-69
2022/04/13 09:38:19;;;;;;;5.57;4.03;;;;;;;16.67;nan;-24281.63;4974575;28;20170;-69
2022/04/13 09:40:44;;;;;;;5.85;3.75;;;;;;;16.68;nan;-24282.03;4974161;28;20181;-67
2022/04/13 09:43:15;;;;;;;4.57;3.83;;;;;;;17.07;nan;-24292.66;4974278;28;20264;-68
2022/04/13 09:45:46;;;;;;;6.43;4.07;;;;;;;16.87;nan;-24287.06;4974778;28;20712;-69
2022/04/13 09:48:16;;;;;;;8.88;5.85;;;;;;;17.10;nan;-24293.50;4974712;28;20653;-69
2022/04/13 09:50:44;;;;;;;5.95;4.10;;;;;;;17.34;nan;-24300.06;4974278;28;20181;-66
2022/04/13 09:53:11;;;;;;;7.10;3.58;;;;;;;17.17;nan;-24295.44;4974422;28;20169;-69
2022/04/13 09:55:44;;;;;;;5.20;3.58;;;;;;;16.76;nan;-24284.13;4974052;28;20593;-65
2022/04/13 09:58:12;;;;;;;5.78;3.90;;;;;;;16.47;nan;-24276.16;4974501;28;20184;-68
2022/04/13 10:00:38;;;;;;;6.38;3.95;;;;;;;16.66;nan;-24281.34;4974926;28;20176;-68
2022/04/13 10:03:09;;;;;;;6.20;3.75;;;;;;;16.21;nan;-24268.91;4974307;28;20173;-67
2022/04/13 10:05:35;;;;;;;6.85;4.25;;;;;;;16.29;nan;-24271.13;4974231;28;20177;-67
2022/04/13 10:08:06;;;;;;;6.60;4.10;;;;;;;16.47;nan;-24276.16;4974284;28;20195;-66
2022/04/13 10:10:32;;;;;;;6.25;3.97;;;;;;;16.19;nan;-24268.34;4974211;28;20177;-67
2022/04/13 10:12:57;;;;;;;5.57;3.70;;;;;;;16.09;nan;-24265.69;4973841;28;20166;-69
2022/04/13 10:15:23;;;;;;;7.10;4.10;;;;;;;16.42;nan;-24274.78;4974201;28;20211;-67
2022/04/13 10:17:49;;;;;;;7.93;4.22;;;;;;;16.49;nan;-24276.72;4974196;28;20173;-66
2022/04/13 10:20:14;;;;;;;5.40;3.97;;;;;;;16.83;nan;-24285.97;4956578;28;20565;-65
2022/04/13 10:22:59;;;;;;;7.88;3.80;;;;;;;17.03;nan;-24291.53;4961115;28;20567;-67
2022/04/13 10:25:28;;;;;;;7.05;3.25;;;;;;;17.50;nan;-24304.53;4956806;28;20268;-69
2022/04/13 10:28:01;;;;;;;3.55;2.80;;;;;;;17.86;nan;-24314.44;4967751;28;20182;-66
2022/04/13 10:30:39;;;;;;;6.47;3.65;;;;;;;18.08;nan;-24320.56;4952785;28;20213;-69
2022/04/13 10:33:10;;;;;;;7.22;3.90;;;;;;;17.70;nan;-24309.97;4950079;28;20561;-69
2022/04/13 10:35:38;;;;;;;5.90;3.60;;;;;;;17.71;nan;-24310.25;4948977;28;20225;-67
2022/04/13 10:38:04;;;;;;;5.32;3.90;;;;;;;17.77;nan;-24312.06;4949023;28;20197;-65
2022/04/13 10:40:32;;;;;;;6.63;4.03;;;;;;;17.81;nan;-24313.19;4951116;28;20185;-68
2022/04/13 10:43:05;;;;;;;3.97;3.20;;;;;;;17.99;nan;-24318.06;4937536;29;20190;-67
2022/04/13 10:45:33;;;;;;;5.45;3.42;;;;;;;17.74;nan;-24311.09;4951926;28;20178;-66
2022/04/13 10:48:05;;;;;;;5.10;3.25;;;;;;;17.92;nan;-24316.09;4953040;28;20624;-66
2022/04/13 10:50:33;;;;;;;4.53;3.60;;;;;;;18.27;nan;-24325.72;4957555;28;20654;-68
2022/04/13 10:53:11;;;;;;;5.32;3.97;;;;;;;17.83;nan;-24313.59;4953148;28;20238;-66
2022/04/13 10:55:36;;;;;;;4.38;3.78;;;;;;;17.83;nan;-24313.59;4939312;29;20197;-66
2022/04/13 10:58:12;;;;;;;9.18;4.13;;;;;;;18.36;nan;-24328.22;4951962;29;20697;-66
2022/04/13 11:00:43;;;;;;;5.57;3.45;;;;;;;18.18;nan;-24323.22;4953622;29;21338;-69
2022/04/13 11:03:11;;;;;;;5.95;3.58;;;;;;;18.45;nan;-24330.75;4954006;28;20534;-68
2022/04/13 11:05:40;;;;;;;5.03;3.47;;;;;;;18.71;nan;-24338.00;4964948;28;20182;-65
2022/04/13 11:08:14;;;;;;;5.78;3.55;;;;;;;18.56;nan;-24333.66;4969049;28;20221;-65
2022/04/13 11:10:42;;;;;;;4.78;3.15;;;;;;;18.25;nan;-24325.31;4958214;29;20185;-67
2022/04/13 11:13:08;;;;;;;8.20;3.80;;;;;;;18.77;nan;-24339.53;4953988;29;20237;-66
2022/04/13 11:15:45;;;;;;;5.53;3.47;;;;;;;18.78;nan;-24339.78;4953793;28;20202;-68
2022/04/13 11:18:17;;;;;;;8.90;3.30;;;;;;;18.37;nan;-24328.50;4951947;29;20212;-66
2022/04/13 11:21:01;;;;;;;5.68;3.35;;;;;;;18.51;nan;-24332.56;4952149;29;20192;-69
2022/04/13 11:23:48;;;;;;;6.13;3.42;;;;;;;18.48;nan;-24331.56;4953205;28;20186;-66
2022/04/13 11:26:15;;;;;;;5.35;3.72;;;;;;;18.68;nan;-24337.16;4939872;29;20216;-68
2022/04/13 11:28:40;;;;;;;4.82;3.40;;;;;;;18.77;nan;-24339.53;4953082;28;20249;-68
2022/04/13 11:31:08;;;;;;;4.55;3.00;;;;;;;18.66;nan;-24336.44;4953467;29;20604;-66
2022/04/13 11:33:48;;;;;;;5.45;3.03;;;;;;;18.69;nan;-24337.44;4953258;28;20182;-68
2022/04/13 11:36:13;;;;;;;5.47;3.50;;;;;;;18.18;nan;-24323.22;4953326;29;20624;-66
2022/04/13 11:38:49;;;;;;;4.15;3.17;;;;;;;18.37;nan;-24328.66;4950333;29;20181;-68